sensor_id;sensor_type;location;lat;lon;timestamp;temperature;humidity
7143;DHT22;3613;48.902;9.204;2023-11-19T00:00:49;7.80;99.90
7143;DHT22;3613;48.902;9.204;2023-11-19T00:03:17;7.90;99.90
7143;DHT22;3613;48.902;9.204;2023-11-19T00:05:43;8.00;99.90
7143;DHT22;3613;48.902;9.204;2023-11-19T00:08:11;8.00;99.90
7143;DHT22;3613;48.902;9.204;2023-11-19T00:10:39;8.10;99.90
7143;DHT22;3613;48.902;9.204;2023-11-19T00:13:04;8.10;99.90
7143;DHT22;3613;48.902;9.204;2023-11-19T00:15:30;8.20;99.90
7143;DHT22;3613;48.902;9.204;2023-11-19T00:17:56;8.20;99.90
7143;DHT22;3613;48.902;9.204;2023-11-19T00:20:21;8.30;99.90
7143;DHT22;3613;48.902;9.204;2023-11-19T00:22:48;8.30;99.90
7143;DHT22;3613;48.902;9.204;2023-11-19T00:25:17;8.30;99.90
7143;DHT22;3613;48.902;9.204;2023-11-19T00:27:43;8.30;99.90
7143;DHT22;3613;48.902;9.204;2023-11-19T00:30:12;8.60;99.90
7143;DHT22;3613;48.902;9.204;2023-11-19T00:32:38;8.30;99.90
7143;DHT22;3613;48.902;9.204;2023-11-19T00:35:07;8.30;99.90
7143;DHT22;3613;48.902;9.204;2023-11-19T00:37:35;8.40;99.90
7143;DHT22;3613;48.902;9.204;2023-11-19T00:40:02;8.40;99.90
7143;DHT22;3613;48.902;9.204;2023-11-19T00:42:30;8.40;99.90
7143;DHT22;3613;48.902;9.204;2023-11-19T00:44:56;8.40;99.90
7143;DHT22;3613;48.902;9.204;2023-11-19T00:47:21;8.40;99.90
7143;DHT22;3613;48.902;9.204;2023-11-19T00:49:47;8.50;99.90
7143;DHT22;3613;48.902;9.204;2023-11-19T00:52:16;8.50;99.90
7143;DHT22;3613;48.902;9.204;2023-11-19T00:54:42;8.50;99.90
7143;DHT22;3613;48.902;9.204;2023-11-19T00:57:10;8.60;99.90
7143;DHT22;3613;48.902;9.204;2023-11-19T00:59:44;8.40;99.90
7143;DHT22;3613;48.902;9.204;2023-11-19T01:02:10;8.40;99.90
7143;DHT22;3613;48.902;9.204;2023-11-19T01:04:38;8.30;99.90
7143;DHT22;3613;48.902;9.204;2023-11-19T01:07:04;8.30;99.90
7143;DHT22;3613;48.902;9.204;2023-11-19T01:09:31;8.30;99.90
7143;DHT22;3613;48.902;9.204;2023-11-19T01:12:00;8.30;99.90
7143;DHT22;3613;48.902;9.204;2023-11-19T01:14:26;8.30;99.90
7143;DHT22;3613;48.902;9.204;2023-11-19T01:16:54;8.30;99.90
7143;DHT22;3613;48.902;9.204;2023-11-19T01:19:23;8.40;99.90
7143;DHT22;3613;48.902;9.204;2023-11-19T01:21:49;8.40;99.90
7143;DHT22;3613;48.902;9.204;2023-11-19T01:24:19;8.40;99.90
7143;DHT22;3613;48.902;9.204;2023-11-19T01:26:45;8.40;99.90
7143;DHT22;3613;48.902;9.204;2023-11-19T01:29:15;8.40;99.90
7143;DHT22;3613;48.902;9.204;2023-11-19T01:31:46;8.30;99.90
7143;DHT22;3613;48.902;9.204;2023-11-19T01:34:12;8.40;99.90
7143;DHT22;3613;48.902;9.204;2023-11-19T01:36:38;8.40;99.90
7143;DHT22;3613;48.902;9.204;2023-11-19T01:39:04;8.40;99.90
7143;DHT22;3613;48.902;9.204;2023-11-19T01:41:38;8.40;99.90
7143;DHT22;3613;48.902;9.204;2023-11-19T01:44:06;8.50;99.90
7143;DHT22;3613;48.902;9.204;2023-11-19T01:46:32;8.50;99.90
7143;DHT22;3613;48.902;9.204;2023-11-19T01:49:00;8.50;99.90
7143;DHT22;3613;48.902;9.204;2023-11-19T01:51:30;8.50;99.90
7143;DHT22;3613;48.902;9.204;2023-11-19T01:53:58;8.60;99.90
7143;DHT22;3613;48.902;9.204;2023-11-19T01:56:25;8.50;99.90
7143;DHT22;3613;48.902;9.204;2023-11-19T01:58:53;8.50;99.90
7143;DHT22;3613;48.902;9.204;2023-11-19T02:01:20;8.50;99.90
7143;DHT22;3613;48.902;9.204;2023-11-19T02:03:48;10.00;99.90
7143;DHT22;3613;48.902;9.204;2023-11-19T02:06:14;8.50;99.90
7143;DHT22;3613;48.902;9.204;2023-11-19T02:08:43;8.50;99.90
7143;DHT22;3613;48.902;9.204;2023-11-19T02:11:11;8.50;99.90
7143;DHT22;3613;48.902;9.204;2023-11-19T02:13:37;8.60;99.90
7143;DHT22;3613;48.902;9.204;2023-11-19T02:16:03;8.60;99.90
7143;DHT22;3613;48.902;9.204;2023-11-19T02:18:30;8.70;99.90
7143;DHT22;3613;48.902;9.204;2023-11-19T02:20:58;8.80;99.90
7143;DHT22;3613;48.902;9.204;2023-11-19T02:23:26;8.90;99.90
7143;DHT22;3613;48.902;9.204;2023-11-19T02:26:06;9.00;99.90
7143;DHT22;3613;48.902;9.204;2023-11-19T02:28:39;9.00;99.90
7143;DHT22;3613;48.902;9.204;2023-11-19T02:31:05;8.90;99.90
7143;DHT22;3613;48.902;9.204;2023-11-19T02:33:38;8.90;99.90
7143;DHT22;3613;48.902;9.204;2023-11-19T02:36:07;8.90;99.90
7143;DHT22;3613;48.902;9.204;2023-11-19T02:38:36;8.80;99.90
7143;DHT22;3613;48.902;9.204;2023-11-19T02:41:03;8.80;99.90
7143;DHT22;3613;48.902;9.204;2023-11-19T02:43:33;8.70;99.90
7143;DHT22;3613;48.902;9.204;2023-11-19T02:46:02;8.70;99.90
7143;DHT22;3613;48.902;9.204;2023-11-19T02:48:28;8.80;99.90
7143;DHT22;3613;48.902;9.204;2023-11-19T02:50:53;8.70;99.90
7143;DHT22;3613;48.902;9.204;2023-11-19T02:53:19;8.70;99.90
7143;DHT22;3613;48.902;9.204;2023-11-19T02:55:47;8.90;99.90
7143;DHT22;3613;48.902;9.204;2023-11-19T02:58:15;8.70;99.90
7143;DHT22;3613;48.902;9.204;2023-11-19T03:00:49;8.80;99.90
7143;DHT22;3613;48.902;9.204;2023-11-19T03:03:28;8.80;99.90
7143;DHT22;3613;48.902;9.204;2023-11-19T03:06:07;8.80;99.90
7143;DHT22;3613;48.902;9.204;2023-11-19T03:08:37;8.80;99.90
7143;DHT22;3613;48.902;9.204;2023-11-19T03:11:03;8.90;99.90
7143;DHT22;3613;48.902;9.204;2023-11-19T03:13:33;8.80;99.90
7143;DHT22;3613;48.902;9.204;2023-11-19T03:15:58;8.80;99.90
7143;DHT22;3613;48.902;9.204;2023-11-19T03:18:24;8.70;99.90
7143;DHT22;3613;48.902;9.204;2023-11-19T03:20:49;8.80;99.90
7143;DHT22;3613;48.902;9.204;2023-11-19T03:23:15;8.80;99.90
7143;DHT22;3613;48.902;9.204;2023-11-19T03:25:43;8.80;99.90
7143;DHT22;3613;48.902;9.204;2023-11-19T03:28:09;8.80;99.90
7143;DHT22;3613;48.902;9.204;2023-11-19T03:30:36;8.80;99.90
7143;DHT22;3613;48.902;9.204;2023-11-19T03:33:04;8.80;99.90
7143;DHT22;3613;48.902;9.204;2023-11-19T03:35:30;8.80;99.90
7143;DHT22;3613;48.902;9.204;2023-11-19T03:37:55;8.80;99.90
7143;DHT22;3613;48.902;9.204;2023-11-19T03:40:21;8.90;99.90
7143;DHT22;3613;48.902;9.204;2023-11-19T03:42:47;8.90;99.90
7143;DHT22;3613;48.902;9.204;2023-11-19T03:45:13;8.90;99.90
7143;DHT22;3613;48.902;9.204;2023-11-19T03:47:39;9.00;99.90
7143;DHT22;3613;48.902;9.204;2023-11-19T03:50:06;8.90;99.90
7143;DHT22;3613;48.902;9.204;2023-11-19T03:52:32;9.00;99.90
7143;DHT22;3613;48.902;9.204;2023-11-19T03:55:01;9.00;99.90
7143;DHT22;3613;48.902;9.204;2023-11-19T03:57:29;8.90;99.90
7143;DHT22;3613;48.902;9.204;2023-11-19T03:59:57;9.00;99.90
7143;DHT22;3613;48.902;9.204;2023-11-19T04:02:24;9.00;99.90
7143;DHT22;3613;48.902;9.204;2023-11-19T04:04:55;9.00;99.90
7143;DHT22;3613;48.902;9.204;2023-11-19T04:07:21;9.10;99.90
7143;DHT22;3613;48.902;9.204;2023-11-19T04:09:46;9.10;99.90
7143;DHT22;3613;48.902;9.204;2023-11-19T04:12:12;9.20;99.90
7143;DHT22;3613;48.902;9.204;2023-11-19T04:14:38;9.20;99.90
7143;DHT22;3613;48.902;9.204;2023-11-19T04:17:05;9.20;99.90
7143;DHT22;3613;48.902;9.204;2023-11-19T04:19:31;9.20;99.90
7143;DHT22;3613;48.902;9.204;2023-11-19T04:21:58;9.20;99.90
7143;DHT22;3613;48.902;9.204;2023-11-19T04:24:23;9.20;99.90
7143;DHT22;3613;48.902;9.204;2023-11-19T04:26:49;9.20;99.90
7143;DHT22;3613;48.902;9.204;2023-11-19T04:29:17;9.20;99.90
7143;DHT22;3613;48.902;9.204;2023-11-19T04:31:44;9.20;99.90
7143;DHT22;3613;48.902;9.204;2023-11-19T04:34:10;9.20;99.90
7143;DHT22;3613;48.902;9.204;2023-11-19T04:36:39;9.20;99.90
7143;DHT22;3613;48.902;9.204;2023-11-19T04:39:07;9.30;99.90
7143;DHT22;3613;48.902;9.204;2023-11-19T04:41:52;9.30;99.90
7143;DHT22;3613;48.902;9.204;2023-11-19T04:44:18;9.30;99.90
7143;DHT22;3613;48.902;9.204;2023-11-19T04:46:47;9.40;99.90
7143;DHT22;3613;48.902;9.204;2023-11-19T04:49:13;9.40;99.90
7143;DHT22;3613;48.902;9.204;2023-11-19T04:51:46;9.40;99.90
7143;DHT22;3613;48.902;9.204;2023-11-19T04:54:16;9.40;99.90
7143;DHT22;3613;48.902;9.204;2023-11-19T04:56:45;9.50;99.90
7143;DHT22;3613;48.902;9.204;2023-11-19T04:59:12;9.50;99.90
7143;DHT22;3613;48.902;9.204;2023-11-19T05:01:40;9.60;99.90
7143;DHT22;3613;48.902;9.204;2023-11-19T05:04:08;9.60;99.90
7143;DHT22;3613;48.902;9.204;2023-11-19T05:06:34;9.70;99.90
7143;DHT22;3613;48.902;9.204;2023-11-19T05:09:03;11.30;99.90
7143;DHT22;3613;48.902;9.204;2023-11-19T05:11:36;9.70;99.90
7143;DHT22;3613;48.902;9.204;2023-11-19T05:14:05;9.80;99.90
7143;DHT22;3613;48.902;9.204;2023-11-19T05:16:31;9.80;99.90
7143;DHT22;3613;48.902;9.204;2023-11-19T05:18:57;9.80;99.90
7143;DHT22;3613;48.902;9.204;2023-11-19T05:21:22;9.90;99.90
7143;DHT22;3613;48.902;9.204;2023-11-19T05:23:49;9.90;99.90
7143;DHT22;3613;48.902;9.204;2023-11-19T05:26:23;9.90;99.90
7143;DHT22;3613;48.902;9.204;2023-11-19T05:28:49;10.00;99.90
7143;DHT22;3613;48.902;9.204;2023-11-19T05:31:16;10.00;99.90
7143;DHT22;3613;48.902;9.204;2023-11-19T05:33:42;10.10;99.90
7143;DHT22;3613;48.902;9.204;2023-11-19T05:36:07;10.20;99.90
7143;DHT22;3613;48.902;9.204;2023-11-19T05:38:39;10.30;99.90
7143;DHT22;3613;48.902;9.204;2023-11-19T05:41:07;10.20;99.90
7143;DHT22;3613;48.902;9.204;2023-11-19T05:43:34;10.30;99.90
7143;DHT22;3613;48.902;9.204;2023-11-19T05:46:00;10.50;99.90
7143;DHT22;3613;48.902;9.204;2023-11-19T05:48:28;11.50;99.90
7143;DHT22;3613;48.902;9.204;2023-11-19T05:50:54;10.50;99.90
7143;DHT22;3613;48.902;9.204;2023-11-19T05:53:20;10.60;99.90
7143;DHT22;3613;48.902;9.204;2023-11-19T05:55:45;10.30;99.90
7143;DHT22;3613;48.902;9.204;2023-11-19T05:58:15;10.30;99.90
7143;DHT22;3613;48.902;9.204;2023-11-19T06:00:41;10.30;99.90
7143;DHT22;3613;48.902;9.204;2023-11-19T06:03:10;10.30;99.90
7143;DHT22;3613;48.902;9.204;2023-11-19T06:05:35;10.30;99.90
7143;DHT22;3613;48.902;9.204;2023-11-19T06:08:04;10.30;99.90
7143;DHT22;3613;48.902;9.204;2023-11-19T06:10:32;10.30;99.90
7143;DHT22;3613;48.902;9.204;2023-11-19T06:13:00;10.40;99.90
7143;DHT22;3613;48.902;9.204;2023-11-19T06:15:28;10.30;99.90
7143;DHT22;3613;48.902;9.204;2023-11-19T06:17:54;10.40;99.90
7143;DHT22;3613;48.902;9.204;2023-11-19T06:20:25;10.60;99.90
7143;DHT22;3613;48.902;9.204;2023-11-19T06:22:50;10.50;99.90
7143;DHT22;3613;48.902;9.204;2023-11-19T06:25:18;10.50;99.90
7143;DHT22;3613;48.902;9.204;2023-11-19T06:27:44;10.50;99.90
7143;DHT22;3613;48.902;9.204;2023-11-19T06:30:10;10.50;99.90
7143;DHT22;3613;48.902;9.204;2023-11-19T06:32:37;10.60;99.90
7143;DHT22;3613;48.902;9.204;2023-11-19T06:35:02;10.60;99.90
7143;DHT22;3613;48.902;9.204;2023-11-19T06:37:31;10.60;99.90
7143;DHT22;3613;48.902;9.204;2023-11-19T06:39:59;10.60;99.90
7143;DHT22;3613;48.902;9.204;2023-11-19T06:42:25;10.70;99.90
7143;DHT22;3613;48.902;9.204;2023-11-19T06:44:53;10.70;99.90
7143;DHT22;3613;48.902;9.204;2023-11-19T06:47:18;10.60;99.90
7143;DHT22;3613;48.902;9.204;2023-11-19T06:49:44;10.60;99.90
7143;DHT22;3613;48.902;9.204;2023-11-19T06:52:10;10.70;99.90
7143;DHT22;3613;48.902;9.204;2023-11-19T06:54:37;10.70;99.90
7143;DHT22;3613;48.902;9.204;2023-11-19T06:57:03;10.70;99.90
7143;DHT22;3613;48.902;9.204;2023-11-19T06:59:32;10.70;99.90
7143;DHT22;3613;48.902;9.204;2023-11-19T07:01:58;10.80;99.90
7143;DHT22;3613;48.902;9.204;2023-11-19T07:04:24;10.80;99.90
7143;DHT22;3613;48.902;9.204;2023-11-19T07:06:50;10.80;99.90
7143;DHT22;3613;48.902;9.204;2023-11-19T07:09:18;11.00;99.90
7143;DHT22;3613;48.902;9.204;2023-11-19T07:11:46;10.80;99.90
7143;DHT22;3613;48.902;9.204;2023-11-19T07:14:12;10.80;99.90
7143;DHT22;3613;48.902;9.204;2023-11-19T07:16:40;10.80;99.90
7143;DHT22;3613;48.902;9.204;2023-11-19T07:19:06;10.80;99.90
7143;DHT22;3613;48.902;9.204;2023-11-19T07:21:34;10.80;99.90
7143;DHT22;3613;48.902;9.204;2023-11-19T07:24:02;10.90;99.90
7143;DHT22;3613;48.902;9.204;2023-11-19T07:26:30;10.80;99.90
7143;DHT22;3613;48.902;9.204;2023-11-19T07:28:56;10.90;99.90
7143;DHT22;3613;48.902;9.204;2023-11-19T07:31:23;10.90;99.90
7143;DHT22;3613;48.902;9.204;2023-11-19T07:33:51;10.80;99.90
7143;DHT22;3613;48.902;9.204;2023-11-19T07:36:17;11.00;99.90
7143;DHT22;3613;48.902;9.204;2023-11-19T07:38:42;10.80;99.90
7143;DHT22;3613;48.902;9.204;2023-11-19T07:41:10;10.90;99.90
7143;DHT22;3613;48.902;9.204;2023-11-19T07:43:39;10.90;99.90
7143;DHT22;3613;48.902;9.204;2023-11-19T07:46:10;11.00;99.90
7143;DHT22;3613;48.902;9.204;2023-11-19T07:48:42;11.00;99.90
7143;DHT22;3613;48.902;9.204;2023-11-19T07:51:08;11.00;99.90
7143;DHT22;3613;48.902;9.204;2023-11-19T07:53:34;11.10;99.90
7143;DHT22;3613;48.902;9.204;2023-11-19T07:56:00;11.00;99.90
7143;DHT22;3613;48.902;9.204;2023-11-19T07:58:26;11.00;99.90
7143;DHT22;3613;48.902;9.204;2023-11-19T08:00:54;11.10;99.90
7143;DHT22;3613;48.902;9.204;2023-11-19T08:03:19;11.00;99.90
7143;DHT22;3613;48.902;9.204;2023-11-19T08:05:45;12.90;99.90
7143;DHT22;3613;48.902;9.204;2023-11-19T08:08:11;11.10;99.90
7143;DHT22;3613;48.902;9.204;2023-11-19T08:10:37;11.20;99.90
7143;DHT22;3613;48.902;9.204;2023-11-19T08:13:05;11.30;99.90
7143;DHT22;3613;48.902;9.204;2023-11-19T08:15:31;11.40;99.90
7143;DHT22;3613;48.902;9.204;2023-11-19T08:17:57;11.40;99.90
7143;DHT22;3613;48.902;9.204;2023-11-19T08:20:22;11.50;99.90
7143;DHT22;3613;48.902;9.204;2023-11-19T08:22:53;11.60;99.90
7143;DHT22;3613;48.902;9.204;2023-11-19T08:25:20;11.70;99.90
7143;DHT22;3613;48.902;9.204;2023-11-19T08:27:46;11.80;99.90
7143;DHT22;3613;48.902;9.204;2023-11-19T08:30:12;12.00;99.90
7143;DHT22;3613;48.902;9.204;2023-11-19T08:32:41;12.10;99.90
7143;DHT22;3613;48.902;9.204;2023-11-19T08:35:07;12.40;99.90
7143;DHT22;3613;48.902;9.204;2023-11-19T08:37:33;12.10;99.90
7143;DHT22;3613;48.902;9.204;2023-11-19T08:39:59;12.10;99.90
7143;DHT22;3613;48.902;9.204;2023-11-19T08:42:24;12.00;99.90
7143;DHT22;3613;48.902;9.204;2023-11-19T08:44:50;12.00;99.90
7143;DHT22;3613;48.902;9.204;2023-11-19T08:47:21;11.90;99.90
7143;DHT22;3613;48.902;9.204;2023-11-19T08:49:50;11.90;99.90
7143;DHT22;3613;48.902;9.204;2023-11-19T08:52:17;12.00;99.90
7143;DHT22;3613;48.902;9.204;2023-11-19T08:54:43;12.10;99.90
7143;DHT22;3613;48.902;9.204;2023-11-19T08:57:08;12.20;99.90
7143;DHT22;3613;48.902;9.204;2023-11-19T08:59:35;12.50;99.90
7143;DHT22;3613;48.902;9.204;2023-11-19T09:02:04;12.70;99.90
7143;DHT22;3613;48.902;9.204;2023-11-19T09:04:29;12.80;99.90
7143;DHT22;3613;48.902;9.204;2023-11-19T09:06:57;13.00;99.90
7143;DHT22;3613;48.902;9.204;2023-11-19T09:09:27;13.40;99.90
7143;DHT22;3613;48.902;9.204;2023-11-19T09:11:55;13.90;99.90
7143;DHT22;3613;48.902;9.204;2023-11-19T09:14:20;13.80;99.90
7143;DHT22;3613;48.902;9.204;2023-11-19T09:16:51;14.30;99.90
7143;DHT22;3613;48.902;9.204;2023-11-19T09:19:17;14.30;99.90
7143;DHT22;3613;48.902;9.204;2023-11-19T09:21:43;14.20;99.90
7143;DHT22;3613;48.902;9.204;2023-11-19T09:24:08;14.00;99.90
7143;DHT22;3613;48.902;9.204;2023-11-19T09:26:34;13.80;99.90
7143;DHT22;3613;48.902;9.204;2023-11-19T09:29:04;13.80;99.90
7143;DHT22;3613;48.902;9.204;2023-11-19T09:31:32;13.60;99.90
7143;DHT22;3613;48.902;9.204;2023-11-19T09:33:58;13.40;99.90
7143;DHT22;3613;48.902;9.204;2023-11-19T09:36:26;13.20;99.90
7143;DHT22;3613;48.902;9.204;2023-11-19T09:38:54;13.10;99.90
7143;DHT22;3613;48.902;9.204;2023-11-19T09:41:20;12.90;99.90
7143;DHT22;3613;48.902;9.204;2023-11-19T09:43:45;12.80;99.90
7143;DHT22;3613;48.902;9.204;2023-11-19T09:46:15;12.80;99.90
7143;DHT22;3613;48.902;9.204;2023-11-19T09:48:44;12.80;99.90
7143;DHT22;3613;48.902;9.204;2023-11-19T09:51:11;13.00;99.90
7143;DHT22;3613;48.902;9.204;2023-11-19T09:53:37;13.10;99.90
7143;DHT22;3613;48.902;9.204;2023-11-19T09:56:07;13.10;99.90
7143;DHT22;3613;48.902;9.204;2023-11-19T09:58:35;13.20;99.90
7143;DHT22;3613;48.902;9.204;2023-11-19T10:01:02;13.40;99.90
7143;DHT22;3613;48.902;9.204;2023-11-19T10:03:33;13.50;99.90
7143;DHT22;3613;48.902;9.204;2023-11-19T10:06:01;13.90;99.90
7143;DHT22;3613;48.902;9.204;2023-11-19T10:08:27;14.30;99.90
7143;DHT22;3613;48.902;9.204;2023-11-19T10:10:53;14.50;99.90
7143;DHT22;3613;48.902;9.204;2023-11-19T10:13:19;14.60;90.00
7143;DHT22;3613;48.902;9.204;2023-11-19T10:15:44;14.70;51.70
7143;DHT22;3613;48.902;9.204;2023-11-19T10:18:13;14.70;35.70
7143;DHT22;3613;48.902;9.204;2023-11-19T10:20:41;14.60;74.10
7143;DHT22;3613;48.902;9.204;2023-11-19T10:23:07;14.50;1.00
7143;DHT22;3613;48.902;9.204;2023-11-19T10:25:33;14.60;1.00
7143;DHT22;3613;48.902;9.204;2023-11-19T10:28:01;14.60;1.00
7143;DHT22;3613;48.902;9.204;2023-11-19T10:30:30;14.70;1.00
7143;DHT22;3613;48.902;9.204;2023-11-19T10:35:29;15.00;1.00
7143;DHT22;3613;48.902;9.204;2023-11-19T10:37:55;15.10;1.00
7143;DHT22;3613;48.902;9.204;2023-11-19T10:40:21;15.10;1.00
7143;DHT22;3613;48.902;9.204;2023-11-19T10:42:47;15.10;1.00
7143;DHT22;3613;48.902;9.204;2023-11-19T10:45:22;15.30;1.00
7143;DHT22;3613;48.902;9.204;2023-11-19T10:47:51;15.70;1.00
7143;DHT22;3613;48.902;9.204;2023-11-19T10:50:17;16.00;1.00
7143;DHT22;3613;48.902;9.204;2023-11-19T10:52:44;16.20;1.00
7143;DHT22;3613;48.902;9.204;2023-11-19T10:55:11;16.50;99.90
7143;DHT22;3613;48.902;9.204;2023-11-19T10:57:42;16.80;99.90
7143;DHT22;3613;48.902;9.204;2023-11-19T11:00:12;16.90;99.90
7143;DHT22;3613;48.902;9.204;2023-11-19T11:02:41;16.80;99.90
7143;DHT22;3613;48.902;9.204;2023-11-19T11:05:15;16.60;99.90
7143;DHT22;3613;48.902;9.204;2023-11-19T11:07:43;16.50;99.90
7143;DHT22;3613;48.902;9.204;2023-11-19T11:10:09;16.10;99.90
7143;DHT22;3613;48.902;9.204;2023-11-19T11:12:37;15.80;99.90
7143;DHT22;3613;48.902;9.204;2023-11-19T11:15:10;15.70;99.90
7143;DHT22;3613;48.902;9.204;2023-11-19T11:17:38;15.70;99.90
7143;DHT22;3613;48.902;9.204;2023-11-19T11:20:08;16.10;1.00
7143;DHT22;3613;48.902;9.204;2023-11-19T11:28:43;15.80;79.60
7143;DHT22;3613;48.902;9.204;2023-11-19T11:39:35;17.00;99.90
7143;DHT22;3613;48.902;9.204;2023-11-19T11:50:19;16.60;99.90
7143;DHT22;3613;48.902;9.204;2023-11-19T11:55:26;15.90;1.00
7143;DHT22;3613;48.902;9.204;2023-11-19T11:57:51;15.70;49.70
7143;DHT22;3613;48.902;9.204;2023-11-19T12:03:01;16.10;1.00
7143;DHT22;3613;48.902;9.204;2023-11-19T12:05:28;16.20;1.00
7143;DHT22;3613;48.902;9.204;2023-11-19T12:08:02;16.30;1.00
7143;DHT22;3613;48.902;9.204;2023-11-19T12:10:51;16.50;1.00
7143;DHT22;3613;48.902;9.204;2023-11-19T12:13:17;17.60;1.00
7143;DHT22;3613;48.902;9.204;2023-11-19T12:18:31;18.00;99.90
7143;DHT22;3613;48.902;9.204;2023-11-19T12:21:00;17.40;99.90
7143;DHT22;3613;48.902;9.204;2023-11-19T12:23:29;17.10;1.00
7143;DHT22;3613;48.902;9.204;2023-11-19T12:25:55;17.10;99.90
7143;DHT22;3613;48.902;9.204;2023-11-19T12:28:24;17.40;99.90
7143;DHT22;3613;48.902;9.204;2023-11-19T12:30:52;17.70;99.90
7143;DHT22;3613;48.902;9.204;2023-11-19T12:33:21;18.00;99.90
7143;DHT22;3613;48.902;9.204;2023-11-19T12:35:47;17.80;99.90
7143;DHT22;3613;48.902;9.204;2023-11-19T12:38:26;16.80;99.90
7143;DHT22;3613;48.902;9.204;2023-11-19T12:41:08;16.70;99.90
7143;DHT22;3613;48.902;9.204;2023-11-19T12:43:36;16.30;99.90
7143;DHT22;3613;48.902;9.204;2023-11-19T12:46:17;16.00;99.90
7143;DHT22;3613;48.902;9.204;2023-11-19T12:48:45;15.80;99.90
7143;DHT22;3613;48.902;9.204;2023-11-19T12:51:13;15.90;99.90
7143;DHT22;3613;48.902;9.204;2023-11-19T12:53:54;16.10;99.90
7143;DHT22;3613;48.902;9.204;2023-11-19T12:56:22;16.30;99.90
7143;DHT22;3613;48.902;9.204;2023-11-19T12:58:48;16.30;99.90
7143;DHT22;3613;48.902;9.204;2023-11-19T13:01:18;15.90;99.90
7143;DHT22;3613;48.902;9.204;2023-11-19T13:03:44;15.80;99.90
7143;DHT22;3613;48.902;9.204;2023-11-19T13:06:14;15.70;99.90
7143;DHT22;3613;48.902;9.204;2023-11-19T13:08:48;15.50;99.90
7143;DHT22;3613;48.902;9.204;2023-11-19T13:11:19;15.50;99.90
7143;DHT22;3613;48.902;9.204;2023-11-19T13:13:55;16.10;99.90
7143;DHT22;3613;48.902;9.204;2023-11-19T13:16:21;16.60;99.90
7143;DHT22;3613;48.902;9.204;2023-11-19T13:18:47;16.30;99.90
7143;DHT22;3613;48.902;9.204;2023-11-19T13:21:13;16.10;99.90
7143;DHT22;3613;48.902;9.204;2023-11-19T13:23:41;15.60;99.90
7143;DHT22;3613;48.902;9.204;2023-11-19T13:26:06;15.20;99.90
7143;DHT22;3613;48.902;9.204;2023-11-19T13:28:32;15.10;99.90
7143;DHT22;3613;48.902;9.204;2023-11-19T13:30:58;15.00;99.90
7143;DHT22;3613;48.902;9.204;2023-11-19T13:33:26;14.80;99.90
7143;DHT22;3613;48.902;9.204;2023-11-19T13:35:52;14.70;99.90
7143;DHT22;3613;48.902;9.204;2023-11-19T13:38:20;14.70;99.90
7143;DHT22;3613;48.902;9.204;2023-11-19T13:40:45;14.60;99.90
7143;DHT22;3613;48.902;9.204;2023-11-19T13:43:11;14.50;99.90
7143;DHT22;3613;48.902;9.204;2023-11-19T13:45:37;14.50;99.90
7143;DHT22;3613;48.902;9.204;2023-11-19T13:48:03;14.50;99.90
7143;DHT22;3613;48.902;9.204;2023-11-19T13:50:31;14.40;99.90
7143;DHT22;3613;48.902;9.204;2023-11-19T13:53:00;14.20;99.90
7143;DHT22;3613;48.902;9.204;2023-11-19T13:55:25;14.20;99.90
7143;DHT22;3613;48.902;9.204;2023-11-19T13:57:51;14.30;99.90
7143;DHT22;3613;48.902;9.204;2023-11-19T14:00:17;14.20;99.90
7143;DHT22;3613;48.902;9.204;2023-11-19T14:02:47;14.20;99.90
7143;DHT22;3613;48.902;9.204;2023-11-19T14:05:13;14.10;99.90
7143;DHT22;3613;48.902;9.204;2023-11-19T14:07:40;14.00;99.90
7143;DHT22;3613;48.902;9.204;2023-11-19T14:10:07;14.00;99.90
7143;DHT22;3613;48.902;9.204;2023-11-19T14:12:34;13.90;99.90
7143;DHT22;3613;48.902;9.204;2023-11-19T14:15:01;13.90;99.90
7143;DHT22;3613;48.902;9.204;2023-11-19T14:17:29;13.80;99.90
7143;DHT22;3613;48.902;9.204;2023-11-19T14:19:58;13.70;99.90
7143;DHT22;3613;48.902;9.204;2023-11-19T14:22:23;13.90;99.90
7143;DHT22;3613;48.902;9.204;2023-11-19T14:24:50;13.90;99.90
7143;DHT22;3613;48.902;9.204;2023-11-19T14:27:18;13.80;99.90
7143;DHT22;3613;48.902;9.204;2023-11-19T14:29:44;13.80;99.90
7143;DHT22;3613;48.902;9.204;2023-11-19T14:32:12;13.80;99.90
7143;DHT22;3613;48.902;9.204;2023-11-19T14:34:38;13.80;99.90
7143;DHT22;3613;48.902;9.204;2023-11-19T14:37:06;13.80;99.90
7143;DHT22;3613;48.902;9.204;2023-11-19T14:39:32;13.80;99.90
7143;DHT22;3613;48.902;9.204;2023-11-19T14:41:58;13.70;99.90
7143;DHT22;3613;48.902;9.204;2023-11-19T14:44:27;13.70;99.90
7143;DHT22;3613;48.902;9.204;2023-11-19T14:46:52;13.60;99.90
7143;DHT22;3613;48.902;9.204;2023-11-19T14:49:20;13.50;99.90
7143;DHT22;3613;48.902;9.204;2023-11-19T14:51:45;13.40;99.90
7143;DHT22;3613;48.902;9.204;2023-11-19T14:54:11;13.30;99.90
7143;DHT22;3613;48.902;9.204;2023-11-19T14:56:37;13.20;99.90
7143;DHT22;3613;48.902;9.204;2023-11-19T14:59:04;13.10;99.90
7143;DHT22;3613;48.902;9.204;2023-11-19T15:01:35;13.30;99.90
7143;DHT22;3613;48.902;9.204;2023-11-19T15:04:00;13.10;99.90
7143;DHT22;3613;48.902;9.204;2023-11-19T15:06:28;13.10;99.90
7143;DHT22;3613;48.902;9.204;2023-11-19T15:08:56;13.10;99.90
7143;DHT22;3613;48.902;9.204;2023-11-19T15:11:22;13.10;99.90
7143;DHT22;3613;48.902;9.204;2023-11-19T15:13:50;13.00;99.90
7143;DHT22;3613;48.902;9.204;2023-11-19T15:16:15;13.00;99.90
7143;DHT22;3613;48.902;9.204;2023-11-19T15:18:47;12.80;99.90
7143;DHT22;3613;48.902;9.204;2023-11-19T15:21:13;12.70;99.90
7143;DHT22;3613;48.902;9.204;2023-11-19T15:23:40;12.60;99.90
7143;DHT22;3613;48.902;9.204;2023-11-19T15:26:06;12.50;99.90
7143;DHT22;3613;48.902;9.204;2023-11-19T15:28:35;12.30;99.90
7143;DHT22;3613;48.902;9.204;2023-11-19T15:31:01;12.30;99.90
7143;DHT22;3613;48.902;9.204;2023-11-19T15:33:28;12.40;99.90
7143;DHT22;3613;48.902;9.204;2023-11-19T15:35:54;12.30;99.90
7143;DHT22;3613;48.902;9.204;2023-11-19T15:38:19;12.30;99.90
7143;DHT22;3613;48.902;9.204;2023-11-19T15:40:47;12.40;99.90
7143;DHT22;3613;48.902;9.204;2023-11-19T15:43:13;12.30;99.90
7143;DHT22;3613;48.902;9.204;2023-11-19T15:45:41;12.30;99.90
7143;DHT22;3613;48.902;9.204;2023-11-19T15:48:07;12.20;99.90
7143;DHT22;3613;48.902;9.204;2023-11-19T15:50:32;12.20;99.90
7143;DHT22;3613;48.902;9.204;2023-11-19T15:53:03;12.10;99.90
7143;DHT22;3613;48.902;9.204;2023-11-19T15:55:31;12.10;99.90
7143;DHT22;3613;48.902;9.204;2023-11-19T15:57:57;12.10;99.90
7143;DHT22;3613;48.902;9.204;2023-11-19T16:00:22;11.90;99.90
7143;DHT22;3613;48.902;9.204;2023-11-19T16:02:50;11.80;99.90
7143;DHT22;3613;48.902;9.204;2023-11-19T16:05:18;11.80;99.90
7143;DHT22;3613;48.902;9.204;2023-11-19T16:07:44;12.50;99.90
7143;DHT22;3613;48.902;9.204;2023-11-19T16:10:12;11.70;99.90
7143;DHT22;3613;48.902;9.204;2023-11-19T16:12:41;11.60;99.90
7143;DHT22;3613;48.902;9.204;2023-11-19T16:15:07;11.50;99.90
7143;DHT22;3613;48.902;9.204;2023-11-19T16:17:38;11.40;99.90
7143;DHT22;3613;48.902;9.204;2023-11-19T16:20:04;11.40;99.90
7143;DHT22;3613;48.902;9.204;2023-11-19T16:22:35;11.40;99.90
7143;DHT22;3613;48.902;9.204;2023-11-19T16:25:01;11.50;99.90
7143;DHT22;3613;48.902;9.204;2023-11-19T16:27:30;11.30;99.90
7143;DHT22;3613;48.902;9.204;2023-11-19T16:29:58;11.20;99.90
7143;DHT22;3613;48.902;9.204;2023-11-19T16:32:26;11.20;99.90
7143;DHT22;3613;48.902;9.204;2023-11-19T16:34:52;11.20;99.90
7143;DHT22;3613;48.902;9.204;2023-11-19T16:37:21;11.10;99.90
7143;DHT22;3613;48.902;9.204;2023-11-19T16:39:47;11.10;99.90
7143;DHT22;3613;48.902;9.204;2023-11-19T16:42:15;11.00;99.90